createdAt,value
2018-03-29T00:00:21.275Z,2.97
2018-03-29T00:02:49.586Z,2.70
2018-03-29T00:05:17.098Z,3.40
2018-03-29T00:07:44.603Z,3.03
2018-03-29T00:10:12.167Z,3.23
2018-03-29T00:12:39.685Z,2.80
2018-03-29T00:15:07.213Z,3.07
2018-03-29T00:17:34.751Z,3.13
2018-03-29T00:20:03.154Z,3.60
2018-03-29T00:22:30.674Z,2.90
2018-03-29T00:24:58.237Z,3.23
2018-03-29T00:27:25.755Z,2.97
2018-03-29T00:29:53.312Z,2.83
2018-03-29T00:32:20.838Z,2.70
2018-03-29T00:34:48.366Z,2.47
2018-03-29T00:37:15.886Z,2.80
2018-03-29T00:39:44.202Z,2.33
2018-03-29T00:42:11.764Z,2.10
2018-03-29T00:44:39.269Z,2.00
2018-03-29T00:47:06.810Z,2.20
2018-03-29T00:49:34.331Z,2.47
2018-03-29T00:52:01.858Z,2.23
2018-03-29T00:54:29.382Z,2.33
2018-03-29T00:56:56.905Z,2.40
2018-03-29T00:59:25.181Z,2.47
2018-03-29T01:01:53.513Z,2.97
2018-03-29T01:04:21.018Z,2.53
2018-03-29T01:06:48.574Z,2.73
2018-03-29T01:09:16.140Z,2.60
2018-03-29T01:11:43.651Z,3.23
2018-03-29T01:14:11.155Z,2.90
2018-03-29T01:16:38.669Z,3.10
2018-03-29T01:19:06.242Z,2.67
2018-03-29T01:21:33.763Z,2.90
2018-03-29T01:24:01.298Z,2.80
2018-03-29T01:26:28.803Z,2.70
2018-03-29T01:28:57.070Z,2.37
2018-03-29T01:31:24.747Z,2.20
2018-03-29T01:33:52.267Z,2.60
2018-03-29T01:36:19.782Z,2.70
2018-03-29T01:38:48.134Z,2.50
2018-03-29T01:41:15.656Z,2.90
2018-03-29T01:43:43.186Z,2.67
2018-03-29T01:46:10.751Z,2.50
2018-03-29T01:48:39.054Z,2.30
2018-03-29T01:51:07.326Z,2.57
2018-03-29T01:53:35.639Z,2.60
2018-03-29T01:56:03.166Z,2.70
2018-03-29T01:58:31.463Z,2.63
2018-03-29T02:00:59.045Z,2.90
2018-03-29T02:03:27.300Z,2.87
2018-03-29T02:05:55.582Z,2.63
2018-03-29T02:08:23.143Z,2.73
2018-03-29T02:10:51.418Z,2.90
2018-03-29T02:13:18.914Z,2.63
2018-03-29T02:15:46.468Z,2.70
2018-03-29T02:18:14.002Z,2.57
2018-03-29T02:20:41.518Z,2.70
2018-03-29T02:23:09.043Z,2.90
2018-03-29T02:25:37.319Z,2.57
2018-03-29T02:28:05.617Z,2.50
2018-03-29T02:30:33.931Z,2.90
2018-03-29T02:33:01.498Z,2.57
2018-03-29T02:35:28.998Z,2.80
2018-03-29T02:37:56.540Z,2.50
2018-03-29T02:40:24.076Z,3.00
2018-03-29T02:42:51.614Z,3.10
2018-03-29T02:45:20.776Z,2.70
2018-03-29T02:47:48.375Z,3.17
2018-03-29T02:50:15.903Z,2.90
2018-03-29T02:52:43.560Z,3.10
2018-03-29T02:55:11.154Z,3.00
2018-03-29T02:57:38.688Z,3.23
2018-03-29T03:00:06.225Z,3.07
2018-03-29T03:02:33.739Z,3.17
2018-03-29T03:05:02.783Z,3.40
2018-03-29T03:07:30.332Z,3.33
2018-03-29T03:09:57.855Z,3.40
2018-03-29T03:12:25.371Z,3.80
2018-03-29T03:14:52.909Z,3.60
2018-03-29T03:17:21.195Z,3.40
2018-03-29T03:19:49.487Z,3.67
2018-03-29T03:22:17.801Z,3.60
2018-03-29T03:24:45.337Z,3.53
2018-03-29T03:27:12.917Z,3.60
2018-03-29T03:29:40.431Z,3.63
2018-03-29T03:32:07.939Z,3.60
2018-03-29T03:34:35.697Z,3.80
2018-03-29T03:37:04.041Z,3.90
2018-03-29T03:39:31.562Z,3.43
2018-03-29T03:41:59.080Z,4.40
2018-03-29T03:44:27.432Z,4.13
2018-03-29T03:46:54.927Z,4.17
2018-03-29T03:49:22.480Z,4.40
2018-03-29T03:51:50.000Z,4.20
2018-03-29T03:54:17.546Z,4.27
2018-03-29T03:56:45.810Z,5.00
2018-03-29T03:59:13.324Z,4.23
2018-03-29T04:01:40.835Z,4.30
2018-03-29T04:04:09.129Z,4.10
2018-03-29T04:06:37.448Z,4.10
2018-03-29T04:09:04.964Z,4.77
2018-03-29T04:11:33.236Z,4.00
2018-03-29T04:14:00.833Z,3.93
2018-03-29T04:16:28.350Z,4.07
2018-03-29T04:18:55.846Z,4.27
2018-03-29T04:21:24.152Z,4.77
2018-03-29T04:23:51.685Z,4.63
2018-03-29T04:26:19.962Z,4.23
2018-03-29T04:28:47.503Z,3.83
2018-03-29T04:31:15.025Z,4.70
2018-03-29T04:33:42.542Z,4.50
2018-03-29T04:36:10.139Z,4.10
2018-03-29T04:38:37.650Z,4.10
2018-03-29T04:41:05.166Z,4.40
2018-03-29T04:43:33.470Z,4.27
2018-03-29T04:46:01.007Z,4.23
2018-03-29T04:48:29.274Z,4.63
2018-03-29T04:50:57.599Z,4.37
2018-03-29T04:53:25.102Z,4.80
2018-03-29T04:55:52.612Z,4.37
2018-03-29T04:58:20.157Z,4.93
2018-03-29T05:00:48.446Z,5.70
2018-03-29T05:03:16.722Z,5.50
2018-03-29T05:05:45.034Z,5.70
2018-03-29T05:08:12.565Z,5.40
2018-03-29T05:10:40.088Z,6.10
2018-03-29T05:13:07.623Z,5.60
2018-03-29T05:15:35.163Z,5.60
2018-03-29T05:18:03.490Z,5.40
2018-03-29T05:20:31.018Z,5.80
2018-03-29T05:22:58.539Z,6.13
2018-03-29T05:25:26.063Z,5.97
2018-03-29T05:27:57.206Z,5.80
2018-03-29T05:30:24.735Z,6.33
2018-03-29T05:32:53.011Z,6.23
2018-03-29T05:35:20.553Z,6.30
2018-03-29T05:37:48.213Z,5.70
2018-03-29T05:40:15.724Z,6.13
2018-03-29T05:42:43.259Z,6.70
2018-03-29T05:45:10.771Z,6.37
2018-03-29T05:47:38.291Z,6.03
2018-03-29T05:50:05.833Z,5.80
2018-03-29T05:52:33.348Z,6.07
2018-03-29T05:55:01.618Z,6.17
2018-03-29T05:57:29.914Z,5.97
2018-03-29T05:59:57.416Z,6.83
2018-03-29T06:02:24.923Z,6.43
2018-03-29T06:04:53.223Z,6.40
2018-03-29T06:07:20.730Z,7.57
2018-03-29T06:09:48.240Z,7.30
2018-03-29T06:12:16.520Z,6.10
2018-03-29T06:14:45.716Z,6.33
2018-03-29T06:17:19.702Z,7.00
2018-03-29T06:19:47.219Z,5.80
2018-03-29T06:22:14.734Z,6.50
2018-03-29T06:24:42.288Z,6.13
2018-03-29T06:27:09.835Z,5.90
2018-03-29T06:29:37.355Z,6.83
2018-03-29T06:32:05.671Z,5.53
2018-03-29T06:34:33.176Z,6.30
2018-03-29T06:37:00.689Z,7.00
2018-03-29T06:39:28.271Z,6.27
2018-03-29T06:41:55.839Z,5.80
2018-03-29T06:44:23.362Z,6.03
2018-03-29T06:46:50.890Z,5.40
2018-03-29T06:49:18.401Z,5.53
2018-03-29T06:51:45.950Z,5.27
2018-03-29T06:54:14.277Z,4.90
2018-03-29T06:56:41.793Z,5.70
2018-03-29T06:59:10.067Z,5.27
2018-03-29T07:01:38.370Z,5.07
2018-03-29T07:04:05.879Z,5.40
2018-03-29T07:06:33.412Z,5.23
2018-03-29T07:09:00.947Z,5.47
2018-03-29T07:11:29.243Z,5.27
2018-03-29T07:13:56.756Z,4.37
2018-03-29T07:16:24.307Z,4.77
2018-03-29T07:18:51.820Z,5.23
2018-03-29T07:21:20.096Z,5.00
2018-03-29T07:23:48.415Z,4.93
2018-03-29T07:26:15.931Z,5.47
2018-03-29T07:28:43.436Z,5.13
2018-03-29T07:31:10.996Z,5.20
2018-03-29T07:33:38.506Z,5.53
2018-03-29T07:36:06.061Z,4.60
2018-03-29T07:38:33.614Z,5.50
2018-03-29T07:41:01.159Z,5.13
2018-03-29T07:43:28.668Z,5.13
2018-03-29T07:45:56.247Z,4.60
2018-03-29T07:48:23.758Z,5.33
2018-03-29T07:50:51.254Z,5.57
2018-03-29T07:53:19.671Z,5.63
2018-03-29T07:55:47.975Z,6.00
2018-03-29T07:58:15.473Z,5.63
2018-03-29T08:00:43.003Z,5.70
2018-03-29T08:03:10.604Z,5.70
2018-03-29T08:05:38.111Z,5.80
2018-03-29T08:08:05.636Z,6.00
2018-03-29T08:10:33.155Z,6.07
2018-03-29T08:13:00.676Z,5.70
2018-03-29T08:15:28.211Z,5.43
2018-03-29T08:17:55.738Z,5.67
2018-03-29T08:20:23.323Z,5.80
2018-03-29T08:22:50.862Z,6.00
2018-03-29T08:25:19.138Z,5.53
2018-03-29T08:27:48.459Z,5.47
2018-03-29T08:30:16.062Z,5.70
2018-03-29T08:32:43.601Z,5.70
2018-03-29T08:35:11.122Z,5.67
2018-03-29T08:37:40.458Z,5.17
2018-03-29T08:40:07.976Z,5.20
2018-03-29T08:42:35.559Z,4.87
2018-03-29T08:45:03.869Z,5.00
2018-03-29T08:47:31.406Z,4.60
2018-03-29T08:49:58.952Z,4.10
2018-03-29T08:52:26.482Z,4.60
2018-03-29T08:54:54.023Z,4.17
2018-03-29T08:57:22.398Z,4.43
2018-03-29T08:59:49.966Z,4.47
2018-03-29T09:02:17.505Z,3.70
2018-03-29T09:04:45.028Z,3.90
2018-03-29T09:07:12.598Z,3.90
2018-03-29T09:09:40.111Z,4.27
2018-03-29T09:12:08.391Z,3.57
2018-03-29T09:14:36.707Z,3.40
2018-03-29T09:17:04.231Z,3.50
2018-03-29T09:19:32.554Z,3.83
2018-03-29T09:22:00.086Z,4.00
2018-03-29T09:24:28.378Z,3.93
2018-03-29T09:26:55.916Z,4.07
2018-03-29T09:29:24.225Z,4.00
2018-03-29T09:31:51.787Z,3.70
2018-03-29T09:34:20.064Z,3.80
2018-03-29T09:36:48.363Z,4.33
2018-03-29T09:39:15.894Z,3.90
2018-03-29T09:41:43.433Z,4.23
2018-03-29T09:44:11.056Z,4.37
2018-03-29T09:46:38.620Z,3.73
2018-03-29T09:49:06.182Z,3.17
2018-03-29T09:51:33.730Z,4.30
2018-03-29T09:54:02.016Z,3.70
2018-03-29T09:56:29.556Z,3.40
2018-03-29T09:58:57.133Z,3.70
2018-03-29T10:01:25.427Z,3.23
2018-03-29T10:03:59.482Z,3.50
2018-03-29T10:06:27.007Z,3.30
2018-03-29T10:08:55.282Z,3.60
2018-03-29T10:11:23.584Z,3.43
2018-03-29T10:13:51.106Z,3.57
2018-03-29T10:16:18.627Z,3.10
2018-03-29T10:18:46.159Z,3.67
2018-03-29T10:21:14.438Z,3.20
2018-03-29T10:23:42.718Z,3.53
2018-03-29T10:26:11.050Z,3.17
2018-03-29T10:28:38.587Z,3.27
2018-03-29T10:31:06.114Z,3.40
2018-03-29T10:33:33.663Z,3.43
2018-03-29T10:36:01.184Z,3.17
2018-03-29T10:38:28.706Z,3.03
2018-03-29T10:40:57.014Z,2.73
2018-03-29T10:43:24.526Z,2.90
2018-03-29T10:45:52.265Z,2.83
2018-03-29T10:48:20.543Z,2.87
2018-03-29T10:50:48.087Z,2.63
2018-03-29T10:53:16.456Z,2.57
2018-03-29T10:55:43.987Z,2.67
2018-03-29T10:58:11.513Z,2.63
2018-03-29T11:00:39.039Z,2.73
2018-03-29T11:03:06.595Z,2.87
2018-03-29T11:05:34.142Z,3.10
2018-03-29T11:08:01.674Z,3.20
2018-03-29T11:10:29.207Z,2.80
2018-03-29T11:12:57.513Z,2.80
2018-03-29T11:15:25.069Z,2.70
2018-03-29T11:17:52.631Z,2.53
2018-03-29T11:20:21.034Z,2.23
2018-03-29T11:22:48.669Z,3.00
2018-03-29T11:25:17.089Z,2.70
2018-03-29T11:27:44.654Z,2.05
2018-03-29T11:30:12.175Z,2.12
2018-03-29T11:32:40.477Z,2.37
2018-03-29T11:35:08.002Z,2.35
2018-03-29T11:37:35.546Z,2.30
2018-03-29T11:40:03.271Z,2.00
2018-03-29T11:42:30.870Z,2.05
2018-03-29T11:44:58.407Z,2.20
2018-03-29T11:47:26.842Z,2.42
2018-03-29T11:49:54.368Z,2.20
2018-03-29T11:52:23.613Z,2.20
2018-03-29T11:54:51.290Z,2.00
2018-03-29T11:57:18.818Z,2.20
2018-03-29T11:59:46.378Z,1.90
2018-03-29T12:02:13.965Z,1.85
2018-03-29T12:04:41.498Z,1.90
2018-03-29T12:07:09.039Z,2.00
2018-03-29T12:09:37.378Z,1.98
2018-03-29T12:12:05.023Z,2.30
2018-03-29T12:14:32.551Z,2.30
2018-03-29T12:17:00.863Z,2.03
2018-03-29T12:19:28.413Z,1.92
2018-03-29T12:21:55.968Z,1.50
2018-03-29T12:24:24.287Z,2.00
2018-03-29T12:26:51.880Z,1.60
2018-03-29T12:29:19.422Z,1.70
2018-03-29T12:31:46.980Z,2.10
2018-03-29T12:34:14.498Z,2.03
2018-03-29T12:36:42.774Z,1.80
2018-03-29T12:39:11.075Z,2.20
2018-03-29T12:41:38.633Z,2.30
2018-03-29T12:44:06.916Z,2.20
2018-03-29T12:46:35.252Z,2.30
2018-03-29T12:51:35.632Z,2.30
2018-03-29T12:54:03.913Z,2.30
2018-03-29T12:56:44.035Z,2.20
2018-03-29T12:59:11.570Z,2.23
2018-03-29T13:01:39.124Z,2.23
2018-03-29T13:04:06.940Z,2.07
2018-03-29T13:06:34.446Z,2.00
2018-03-29T13:09:02.754Z,1.80
2018-03-29T13:11:30.280Z,2.17
2018-03-29T13:13:58.570Z,2.10
2018-03-29T13:16:26.863Z,2.00
2018-03-29T13:18:54.418Z,2.10
2018-03-29T13:21:22.692Z,1.53
2018-03-29T13:23:51.000Z,1.50
2018-03-29T13:26:18.529Z,1.87
2018-03-29T13:28:46.808Z,1.93
2018-03-29T13:31:15.088Z,1.90
2018-03-29T13:33:43.424Z,1.73
2018-03-29T13:36:10.987Z,1.87
2018-03-29T13:38:38.508Z,2.03
2018-03-29T13:41:06.824Z,2.10
2018-03-29T13:43:34.337Z,1.90
2018-03-29T13:46:02.616Z,1.90
2018-03-29T13:48:30.154Z,2.00
2018-03-29T13:50:57.794Z,1.98
2018-03-29T13:53:25.334Z,1.80
2018-03-29T13:55:53.635Z,2.20
2018-03-29T13:58:21.170Z,2.10
2018-03-29T14:00:49.450Z,2.33
2018-03-29T14:03:17.746Z,1.80
2018-03-29T14:05:46.048Z,1.90
2018-03-29T14:08:13.559Z,2.20
2018-03-29T14:10:41.119Z,1.90
2018-03-29T14:13:08.662Z,2.40
2018-03-29T14:15:36.198Z,2.40
2018-03-29T14:18:03.776Z,2.20
2018-03-29T14:20:31.407Z,2.00
2018-03-29T14:22:59.530Z,2.27
2018-03-29T14:25:27.357Z,2.37
2018-03-29T14:27:55.848Z,2.43
2018-03-29T14:30:24.181Z,2.50
2018-03-29T14:32:51.890Z,2.60
2018-03-29T14:35:20.185Z,2.40
2018-03-29T14:37:47.724Z,2.30
2018-03-29T14:40:15.286Z,2.20
2018-03-29T14:42:43.580Z,2.20
2018-03-29T14:45:11.164Z,1.90
2018-03-29T14:47:38.732Z,2.63
2018-03-29T14:50:06.322Z,2.50
2018-03-29T14:52:33.848Z,2.60
2018-03-29T14:55:01.616Z,2.50
2018-03-29T14:57:29.159Z,2.40
2018-03-29T14:59:57.723Z,2.30
2018-03-29T15:02:25.397Z,2.50
2018-03-29T15:04:52.925Z,2.63
2018-03-29T15:07:20.486Z,2.30
2018-03-29T15:09:48.079Z,2.30
2018-03-29T15:12:15.620Z,2.70
2018-03-29T15:14:43.162Z,2.47
2018-03-29T15:17:10.763Z,2.63
2018-03-29T15:19:38.296Z,2.80
2018-03-29T15:22:05.803Z,2.60
2018-03-29T15:24:33.334Z,2.53
2018-03-29T15:27:00.852Z,2.47
2018-03-29T15:29:28.382Z,2.57
2018-03-29T15:31:55.914Z,2.90
2018-03-29T15:34:23.449Z,2.80
2018-03-29T15:36:51.746Z,2.63
2018-03-29T15:39:20.056Z,2.27
2018-03-29T15:41:47.604Z,2.63
2018-03-29T15:44:15.121Z,2.70
2018-03-29T15:46:42.675Z,2.63
2018-03-29T15:49:10.187Z,2.60
2018-03-29T15:51:38.467Z,2.33
2018-03-29T15:54:06.774Z,2.43
2018-03-29T15:56:34.333Z,2.60
2018-03-29T15:59:01.882Z,2.77
2018-03-29T16:01:30.190Z,2.23
2018-03-29T16:03:57.708Z,2.70
2018-03-29T16:06:25.988Z,2.80
2018-03-29T16:08:53.594Z,2.70
2018-03-29T16:11:21.105Z,2.50
2018-03-29T16:13:48.710Z,2.60
2018-03-29T16:16:17.023Z,2.70
2018-03-29T16:18:44.531Z,2.80
2018-03-29T16:21:12.826Z,3.37
2018-03-29T16:23:40.724Z,2.80
2018-03-29T16:26:08.502Z,2.97
2018-03-29T16:28:41.199Z,3.03
2018-03-29T16:31:08.765Z,2.90
2018-03-29T16:33:36.301Z,2.77
2018-03-29T16:36:03.901Z,3.13
2018-03-29T16:38:32.241Z,2.90
2018-03-29T16:40:59.759Z,2.70
2018-03-29T16:43:27.368Z,2.97
2018-03-29T16:45:54.896Z,2.70
2018-03-29T16:48:23.204Z,2.83
2018-03-29T16:50:51.576Z,2.80
2018-03-29T16:53:19.879Z,2.70
2018-03-29T16:55:47.536Z,2.90
2018-03-29T16:58:16.201Z,2.80
2018-03-29T17:00:44.510Z,2.87
2018-03-29T17:03:12.792Z,3.33
2018-03-29T17:05:41.121Z,2.97
2018-03-29T17:08:09.279Z,2.80
2018-03-29T17:10:37.258Z,2.73
2018-03-29T17:13:04.905Z,2.80
2018-03-29T17:15:32.506Z,2.67
2018-03-29T17:18:00.186Z,2.80
2018-03-29T17:20:28.022Z,2.70
2018-03-29T17:22:56.023Z,3.00
2018-03-29T17:25:24.686Z,3.17
2018-03-29T17:27:52.241Z,2.90
2018-03-29T17:30:19.760Z,2.63
2018-03-29T17:32:48.039Z,2.40
2018-03-29T17:35:16.383Z,2.80
2018-03-29T17:37:44.118Z,2.30
2018-03-29T17:40:12.406Z,3.37
2018-03-29T17:42:40.737Z,2.90
2018-03-29T17:45:08.278Z,3.27
2018-03-29T17:47:35.923Z,3.00
2018-03-29T17:50:03.531Z,2.93
2018-03-29T17:52:31.154Z,2.90
2018-03-29T17:54:59.436Z,3.67
2018-03-29T17:57:27.057Z,4.67
2018-03-29T17:59:54.790Z,3.80
2018-03-29T18:02:22.411Z,4.37
2018-03-29T18:04:51.667Z,4.70
2018-03-29T18:07:19.411Z,5.17
2018-03-29T18:09:46.955Z,4.60
2018-03-29T18:12:14.556Z,4.03
2018-03-29T18:14:42.071Z,4.63
2018-03-29T18:17:10.410Z,5.80
2018-03-29T18:19:38.066Z,5.03
2018-03-29T18:22:05.615Z,4.50
2018-03-29T18:24:33.171Z,4.27
2018-03-29T18:27:00.766Z,4.37
2018-03-29T18:29:28.332Z,4.23
2018-03-29T18:31:55.991Z,4.33
2018-03-29T18:34:23.614Z,3.90
2018-03-29T18:36:51.961Z,4.70
2018-03-29T18:39:20.269Z,4.50
2018-03-29T18:41:48.304Z,4.37
2018-03-29T18:44:15.864Z,5.07
2018-03-29T18:46:43.530Z,4.63
2018-03-29T18:49:12.588Z,4.77
2018-03-29T18:51:41.008Z,4.80
2018-03-29T18:54:08.966Z,4.23
2018-03-29T18:56:37.324Z,4.20
2018-03-29T18:59:05.712Z,4.50
2018-03-29T19:01:33.529Z,4.10
2018-03-29T19:04:01.399Z,4.33
2018-03-29T19:06:28.998Z,4.30
2018-03-29T19:08:56.525Z,3.90
2018-03-29T19:11:24.254Z,4.20
2018-03-29T19:13:52.580Z,4.37
2018-03-29T19:16:20.131Z,4.23
2018-03-29T19:18:47.734Z,4.33
2018-03-29T19:21:15.278Z,4.23
2018-03-29T19:23:43.055Z,4.10
2018-03-29T19:26:11.495Z,4.70
2018-03-29T19:28:39.859Z,4.40
2018-03-29T19:31:07.438Z,4.60
2018-03-29T19:33:35.809Z,4.40
2018-03-29T19:36:04.125Z,4.47
2018-03-29T19:38:31.647Z,4.33
2018-03-29T19:40:59.178Z,4.20
2018-03-29T19:43:27.486Z,4.30
2018-03-29T19:45:55.013Z,4.67
2018-03-29T19:48:22.583Z,4.57
2018-03-29T19:50:50.135Z,4.27
2018-03-29T19:53:17.655Z,4.40
2018-03-29T19:55:45.283Z,4.67
2018-03-29T19:58:13.192Z,4.17
2018-03-29T20:00:41.564Z,4.50
2018-03-29T20:03:17.448Z,4.67
2018-03-29T20:05:45.397Z,5.13
2018-03-29T20:08:13.893Z,4.77
2018-03-29T20:10:48.412Z,6.00
2018-03-29T20:13:16.602Z,5.60
2018-03-29T20:15:44.562Z,5.07
2018-03-29T20:18:13.531Z,4.57
2018-03-29T20:20:41.397Z,4.43
2018-03-29T20:23:09.798Z,4.83
2018-03-29T20:25:37.318Z,4.60
2018-03-29T20:28:05.654Z,4.67
2018-03-29T20:30:33.361Z,4.47
2018-03-29T20:33:00.954Z,4.30
2018-03-29T20:35:28.486Z,4.10
2018-03-29T20:37:56.769Z,4.00
2018-03-29T20:40:25.134Z,3.70
2018-03-29T20:42:54.187Z,3.60
2018-03-29T20:45:21.736Z,3.87
2018-03-29T20:47:49.258Z,4.03
2018-03-29T20:50:16.797Z,4.20
2018-03-29T20:52:44.310Z,4.17
2018-03-29T20:55:11.832Z,3.80
2018-03-29T20:57:39.373Z,3.90
2018-03-29T21:00:06.911Z,3.97
2018-03-29T21:02:35.264Z,4.60
2018-03-29T21:05:03.905Z,4.50
2018-03-29T21:07:31.463Z,3.73
2018-03-29T21:09:59.006Z,4.00
2018-03-29T21:12:27.294Z,3.87
2018-03-29T21:14:54.848Z,4.77
2018-03-29T21:17:23.200Z,4.27
2018-03-29T21:19:50.819Z,4.75
2018-03-29T21:22:18.443Z,4.47
2018-03-29T21:24:45.957Z,4.30
2018-03-29T21:27:13.527Z,4.80
2018-03-29T21:29:41.031Z,4.50
2018-03-29T21:32:08.546Z,5.47
2018-03-29T21:34:36.386Z,5.17
2018-03-29T21:37:04.728Z,4.77
2018-03-29T21:39:33.102Z,5.50
2018-03-29T21:42:00.802Z,4.60
2018-03-29T21:44:29.845Z,4.60
2018-03-29T21:46:57.371Z,4.80
2018-03-29T21:49:25.692Z,4.90
2018-03-29T21:51:53.218Z,4.50
2018-03-29T21:54:21.498Z,4.70
2018-03-29T21:56:49.809Z,4.50
2018-03-29T21:59:17.330Z,5.10
2018-03-29T22:01:45.090Z,5.00
2018-03-29T22:04:12.639Z,5.10
2018-03-29T22:06:40.202Z,4.97
2018-03-29T22:09:07.713Z,5.23
2018-03-29T22:11:36.035Z,5.67
2018-03-29T22:14:03.560Z,5.43
2018-03-29T22:16:31.923Z,5.33
2018-03-29T22:18:59.469Z,6.03
2018-03-29T22:21:27.001Z,5.30
2018-03-29T22:23:54.523Z,5.63
2018-03-29T22:26:22.856Z,5.87
2018-03-29T22:28:50.359Z,5.40
2018-03-29T22:31:17.888Z,5.50
2018-03-29T22:33:45.412Z,6.07
2018-03-29T22:36:13.703Z,5.57
2018-03-29T22:38:41.991Z,4.90
2018-03-29T22:41:09.555Z,6.10
2018-03-29T22:43:37.821Z,5.50
2018-03-29T22:46:06.107Z,5.37
2018-03-29T22:48:34.417Z,5.60
2018-03-29T22:51:01.928Z,6.03
2018-03-29T22:53:30.955Z,5.30
2018-03-29T22:55:58.500Z,5.07
2018-03-29T22:58:26.595Z,5.13
2018-03-29T23:00:54.910Z,5.90
2018-03-29T23:03:22.470Z,5.37
2018-03-29T23:05:49.990Z,5.13
2018-03-29T23:08:19.110Z,5.23
2018-03-29T23:10:46.631Z,5.13
2018-03-29T23:13:14.264Z,5.33
2018-03-29T23:15:41.781Z,5.20
2018-03-29T23:18:09.378Z,6.60
2018-03-29T23:20:36.903Z,5.33
2018-03-29T23:23:04.430Z,5.20
2018-03-29T23:25:32.092Z,5.10
2018-03-29T23:28:00.431Z,5.17
2018-03-29T23:30:28.724Z,5.40
2018-03-29T23:32:57.126Z,5.23
2018-03-29T23:35:24.640Z,5.37
2018-03-29T23:37:52.143Z,5.60
2018-03-29T23:40:19.671Z,5.33
2018-03-29T23:42:47.187Z,5.00
2018-03-29T23:45:14.719Z,5.77
2018-03-29T23:47:43.021Z,6.40
2018-03-29T23:50:10.528Z,6.40
2018-03-29T23:52:38.038Z,5.90
2018-03-29T23:55:05.600Z,7.03
2018-03-29T23:57:33.875Z,7.20
